createdAt,value
2023-02-18T00:04:35.026Z,9.40
2023-02-18T00:09:31.784Z,9.45
2023-02-18T00:14:29.127Z,9.56
2023-02-18T00:19:25.826Z,9.43
2023-02-18T00:24:22.820Z,9.69
2023-02-18T00:29:22.440Z,9.81
2023-02-18T00:34:19.915Z,9.54
2023-02-18T00:39:16.720Z,9.55
2023-02-18T00:44:18.151Z,9.86
2023-02-18T00:49:15.267Z,9.98
2023-02-18T00:54:12.619Z,10.06
2023-02-18T00:59:09.224Z,10.02
2023-02-18T01:04:05.843Z,9.95
2023-02-18T01:09:02.696Z,9.98
2023-02-18T01:14:00.281Z,9.99
2023-02-18T01:18:59.564Z,10.01
2023-02-18T01:23:57.907Z,10.02
2023-02-18T01:28:56.968Z,10.00
2023-02-18T01:33:54.320Z,9.95
2023-02-18T01:38:50.968Z,9.94
2023-02-18T01:43:47.769Z,10.07
2023-02-18T01:48:46.572Z,10.04
2023-02-18T01:53:46.951Z,10.13
2023-02-18T01:58:43.836Z,9.84
2023-02-18T02:03:40.426Z,9.79
2023-02-18T02:08:38.435Z,9.69
2023-02-18T02:13:42.823Z,9.62
2023-02-18T02:18:46.933Z,9.63
2023-02-18T02:24:04.716Z,9.80
2023-02-18T02:29:15.451Z,10.00
2023-02-18T02:34:36.199Z,10.02
2023-02-18T02:39:37.904Z,10.13
2023-02-18T02:44:39.066Z,10.25
2023-02-18T02:49:39.528Z,10.29
2023-02-18T02:54:37.011Z,10.31
2023-02-18T02:59:35.911Z,10.26
2023-02-18T03:04:46.786Z,10.28
2023-02-18T03:09:55.369Z,10.32
2023-02-18T03:14:58.306Z,10.27
2023-02-18T03:19:57.850Z,9.93
2023-02-18T03:24:56.971Z,10.06
2023-02-18T03:29:55.932Z,9.92
2023-02-18T03:34:56.148Z,9.70
2023-02-18T03:39:55.944Z,9.80
2023-02-18T03:44:54.114Z,9.68
2023-02-18T03:49:54.539Z,9.59
2023-02-18T03:54:53.766Z,9.57
2023-02-18T03:59:50.327Z,9.64
2023-02-18T04:04:47.686Z,9.57
2023-02-18T04:09:44.288Z,9.50
2023-02-18T04:14:42.801Z,9.53
2023-02-18T04:19:40.109Z,9.53
2023-02-18T04:24:39.659Z,9.52
2023-02-18T04:29:38.946Z,9.68
2023-02-18T04:34:38.367Z,9.71
2023-02-18T04:39:35.417Z,10.00
2023-02-18T04:44:34.965Z,9.93
2023-02-18T04:49:31.671Z,10.02
2023-02-18T04:54:28.363Z,10.03
2023-02-18T04:59:25.138Z,10.06
2023-02-18T05:04:22.593Z,10.30
2023-02-18T05:09:19.488Z,10.31
2023-02-18T05:14:18.376Z,10.36
2023-02-18T05:19:15.444Z,10.42
2023-02-18T05:24:12.801Z,10.36
2023-02-18T05:29:09.620Z,10.18
2023-02-18T05:34:06.172Z,10.17
2023-02-18T05:39:03.012Z,10.38
2023-02-18T05:44:20.261Z,10.22
2023-02-18T05:49:23.171Z,10.40
2023-02-18T05:54:21.785Z,10.34
2023-02-18T05:59:19.528Z,10.59
2023-02-18T06:04:16.461Z,10.60
2023-02-18T06:09:13.185Z,10.60
2023-02-18T06:14:09.853Z,10.88
2023-02-18T06:19:07.371Z,10.69
2023-02-18T06:24:04.293Z,10.62
2023-02-18T06:29:03.867Z,10.74
2023-02-18T06:34:03.241Z,10.72
2023-02-18T06:39:02.872Z,10.76
2023-02-18T06:43:59.407Z,10.94
2023-02-18T06:48:56.122Z,10.85
2023-02-18T06:53:53.007Z,10.94
2023-02-18T06:58:50.648Z,10.92
2023-02-18T07:03:50.341Z,11.03
2023-02-18T07:08:47.318Z,10.99
2023-02-18T07:13:44.989Z,11.14
2023-02-18T07:18:42.396Z,11.12
2023-02-18T07:23:39.208Z,11.30
2023-02-18T07:28:35.972Z,11.47
2023-02-18T07:33:34.430Z,11.56
2023-02-18T07:38:35.130Z,11.68
2023-02-18T07:43:34.703Z,11.93
2023-02-18T07:48:31.337Z,12.00
2023-02-18T07:53:35.423Z,12.01
2023-02-18T07:58:33.950Z,12.13
2023-02-18T08:03:31.565Z,12.20
2023-02-18T08:08:29.437Z,12.31
2023-02-18T08:13:27.157Z,12.41
2023-02-18T08:18:26.587Z,12.45
2023-02-18T08:23:27.345Z,12.47
2023-02-18T08:28:24.394Z,12.64
2023-02-18T08:33:22.076Z,12.77
2023-02-18T08:38:19.470Z,12.82
2023-02-18T08:43:18.255Z,12.91
2023-02-18T08:48:20.653Z,13.05
2023-02-18T08:53:19.611Z,12.96
2023-02-18T08:58:20.782Z,13.06
2023-02-18T09:03:17.663Z,13.02
2023-02-18T09:08:14.228Z,13.06
2023-02-18T09:13:10.978Z,13.14
2023-02-18T09:18:11.748Z,13.18
2023-02-18T09:23:09.125Z,13.23
2023-02-18T09:28:05.771Z,13.26
2023-02-18T09:33:02.511Z,13.31
2023-02-18T09:37:59.871Z,13.29
2023-02-18T09:42:58.073Z,13.42
2023-02-18T09:47:55.353Z,13.44
2023-02-18T09:52:54.377Z,13.37
2023-02-18T09:57:54.138Z,13.55
2023-02-18T10:02:58.936Z,13.58
2023-02-18T10:08:04.886Z,13.59
2023-02-18T10:13:02.745Z,13.64
2023-02-18T10:18:00.210Z,13.62
2023-02-18T10:22:58.764Z,13.59
2023-02-18T10:27:57.346Z,13.66
2023-02-18T10:33:00.761Z,13.66
2023-02-18T10:38:15.648Z,13.71
2023-02-18T10:43:21.328Z,13.59
2023-02-18T10:48:28.377Z,13.68
2023-02-18T10:53:29.431Z,13.67
2023-02-18T10:58:28.303Z,13.60
2023-02-18T11:03:26.833Z,13.63
2023-02-18T11:14:40.052Z,13.57
2023-02-18T11:19:38.553Z,13.51
2023-02-18T11:24:38.286Z,13.52
2023-02-18T11:29:37.450Z,13.50
2023-02-18T11:34:35.426Z,13.59
2023-02-18T11:39:33.648Z,13.44
2023-02-18T11:44:31.924Z,13.55
2023-02-18T11:49:40.304Z,13.50
2023-02-18T11:54:39.301Z,13.44
2023-02-18T11:59:37.696Z,13.48
2023-02-18T12:04:39.088Z,13.47
2023-02-18T12:09:38.657Z,13.51
2023-02-18T12:14:38.003Z,13.55
2023-02-18T12:19:41.847Z,13.75
2023-02-18T12:24:46.539Z,13.74
2023-02-18T12:30:01.457Z,13.80
2023-02-18T12:35:08.404Z,13.86
2023-02-18T12:40:18.024Z,13.82
2023-02-18T12:45:25.775Z,13.96
2023-02-18T12:50:35.078Z,14.01
2023-02-18T12:55:43.826Z,13.87
2023-02-18T13:00:58.563Z,13.94
2023-02-18T13:06:01.859Z,14.01
2023-02-18T13:11:08.286Z,14.00
2023-02-18T13:16:06.340Z,14.10
2023-02-18T13:21:06.068Z,14.16
2023-02-18T13:26:04.449Z,14.16
2023-02-18T13:31:07.338Z,14.26
2023-02-18T13:36:08.153Z,14.32
2023-02-18T13:41:20.467Z,14.35
2023-02-18T13:46:20.769Z,14.44
2023-02-18T13:51:28.744Z,14.50
2023-02-18T13:56:28.021Z,14.64
2023-02-18T14:01:33.743Z,14.51
2023-02-18T14:06:32.720Z,14.47
2023-02-18T14:11:35.063Z,14.48
2023-02-18T14:17:05.321Z,14.55
2023-02-18T14:22:16.941Z,14.70
2023-02-18T14:27:16.520Z,14.75
2023-02-18T14:32:14.872Z,14.81
2023-02-18T14:37:28.359Z,14.75
2023-02-18T14:42:32.353Z,14.72
2023-02-18T14:47:40.446Z,14.65
2023-02-18T14:52:53.416Z,14.72
2023-02-18T14:57:52.823Z,14.73
2023-02-18T15:02:51.922Z,14.69
2023-02-18T15:07:55.445Z,14.63
2023-02-18T15:12:53.042Z,14.53
2023-02-18T15:17:49.900Z,14.48
2023-02-18T15:22:47.566Z,14.44
2023-02-18T15:27:46.608Z,14.32
2023-02-18T15:32:53.464Z,14.22
2023-02-18T15:37:52.835Z,14.04
2023-02-18T15:42:56.545Z,14.07
2023-02-18T15:47:55.483Z,13.97
2023-02-18T15:52:53.206Z,13.81
2023-02-18T15:57:54.384Z,13.61
2023-02-18T16:02:53.127Z,13.73
2023-02-18T16:07:54.611Z,13.70
2023-02-18T16:13:07.800Z,13.63
2023-02-18T16:18:06.507Z,13.54
2023-02-18T16:23:10.600Z,13.62
2023-02-18T16:28:11.983Z,13.51
2023-02-18T16:33:08.863Z,13.44
2023-02-18T16:38:09.041Z,13.41
2023-02-18T16:43:10.818Z,13.45
2023-02-18T16:48:11.388Z,13.33
2023-02-18T16:53:12.085Z,13.28
2023-02-18T16:58:08.701Z,13.06
2023-02-18T17:03:05.804Z,13.00
2023-02-18T17:08:13.339Z,12.87
2023-02-18T17:13:13.086Z,12.85
2023-02-18T17:18:10.052Z,12.84
2023-02-18T17:23:06.962Z,12.77
2023-02-18T17:28:05.167Z,12.85
2023-02-18T17:33:03.894Z,12.91
2023-02-18T17:38:00.748Z,13.03
2023-02-18T17:42:57.371Z,12.92
2023-02-18T17:47:54.095Z,12.82
2023-02-18T17:52:51.613Z,12.86
2023-02-18T17:57:50.118Z,12.75
2023-02-18T18:02:46.778Z,12.67
2023-02-18T18:07:43.445Z,12.41
2023-02-18T18:12:42.123Z,12.47
2023-02-18T18:17:38.948Z,12.22
2023-02-18T18:22:35.646Z,12.09
2023-02-18T18:27:32.304Z,12.22
2023-02-18T18:32:31.086Z,11.93
2023-02-18T18:37:27.752Z,12.01
2023-02-18T18:42:24.644Z,12.04
2023-02-18T18:47:21.548Z,11.90
2023-02-18T18:52:19.225Z,11.75
2023-02-18T18:57:15.830Z,11.98
2023-02-18T19:02:15.514Z,11.99
2023-02-18T19:07:12.271Z,12.07
2023-02-18T19:12:10.922Z,12.13
2023-02-18T19:17:07.510Z,12.15
2023-02-18T19:22:04.143Z,12.07
2023-02-18T19:27:00.928Z,12.04
2023-02-18T19:32:05.918Z,12.06
2023-02-18T19:37:02.778Z,12.02
2023-02-18T19:41:59.732Z,11.85
2023-02-18T19:46:57.549Z,11.75
2023-02-18T19:52:05.416Z,11.73
2023-02-18T19:57:04.901Z,11.90
2023-02-18T20:02:01.608Z,11.82
2023-02-18T20:06:59.004Z,11.76
2023-02-18T20:11:55.698Z,11.72
2023-02-18T20:16:53.467Z,11.90
2023-02-18T20:21:50.229Z,11.94
2023-02-18T20:26:47.723Z,11.94
2023-02-18T20:31:44.548Z,12.12
2023-02-18T20:36:44.997Z,11.90
2023-02-18T20:41:42.132Z,11.64
2023-02-18T20:46:39.686Z,11.60
2023-02-18T20:51:36.428Z,11.31
2023-02-18T20:56:33.162Z,11.43
2023-02-18T21:01:30.249Z,11.69
2023-02-18T21:06:27.942Z,11.79
2023-02-18T21:11:26.257Z,11.83
2023-02-18T21:16:23.945Z,12.01
2023-02-18T21:21:22.453Z,12.16
2023-02-18T21:26:23.254Z,12.09
2023-02-18T21:31:21.601Z,11.86
2023-02-18T21:36:18.687Z,12.01
2023-02-18T21:41:15.964Z,12.10
2023-02-18T21:46:16.318Z,12.19
2023-02-18T21:51:37.365Z,12.25
2023-02-18T21:56:34.112Z,11.91
2023-02-18T22:01:35.370Z,11.99
2023-02-18T22:06:32.556Z,11.96
2023-02-18T22:11:29.638Z,12.18
2023-02-18T22:16:27.645Z,12.04
2023-02-18T22:21:26.888Z,12.00
2023-02-18T22:26:23.778Z,12.00
2023-02-18T22:31:20.895Z,12.02
2023-02-18T22:36:18.329Z,11.96
2023-02-18T22:41:16.504Z,11.67
2023-02-18T22:46:14.073Z,11.72
2023-02-18T22:51:12.492Z,11.67
2023-02-18T22:56:11.669Z,11.61
2023-02-18T23:01:17.928Z,11.84
2023-02-18T23:06:14.895Z,11.84
2023-02-18T23:11:12.729Z,11.85
2023-02-18T23:16:11.945Z,11.52
2023-02-18T23:21:20.732Z,11.64
2023-02-18T23:26:18.073Z,11.93
2023-02-18T23:31:17.034Z,12.08
2023-02-18T23:36:15.330Z,12.42
2023-02-18T23:41:12.154Z,12.49
2023-02-18T23:46:12.562Z,12.57
2023-02-18T23:51:11.202Z,12.59
2023-02-18T23:56:10.692Z,12.37
